Time;durP1;ratioP1;P1;durP2;ratioP2;P2;SDS_P1;SDS_P2;PMS_P1;PMS_P2;Temp;Humidity;BMP_temperature;BMP_pressure;BME280_temperature;BME280_humidity;BME280_pressure;Samples;Min_cycle;Max_cycle;Signal;HPM_P1;HPM_P2
2021/07/25 00:01:41;;;;;;;5.18;3.40;;;19.80;78.50;;;;;;5053083;28;20487;-81
2021/07/25 00:04:07;;;;;;;4.50;3.08;;;19.80;78.50;;;;;;5052841;28;20029;-81
2021/07/25 00:06:32;;;;;;;4.85;3.33;;;19.80;78.50;;;;;;5053069;28;20029;-81
2021/07/25 00:08:58;;;;;;;3.47;2.80;;;19.80;78.60;;;;;;5053006;28;20028;-81
2021/07/25 00:11:24;;;;;;;4.55;3.40;;;19.70;78.60;;;;;;5052475;28;20470;-82
2021/07/25 00:13:52;;;;;;;4.93;3.17;;;19.70;78.70;;;;;;5052900;28;20060;-81
2021/07/25 00:16:18;;;;;;;4.13;3.03;;;19.70;78.70;;;;;;5053128;28;20013;-81
2021/07/25 00:18:44;;;;;;;3.75;2.97;;;19.70;78.70;;;;;;5052945;28;20028;-81
2021/07/25 00:21:10;;;;;;;4.63;3.17;;;19.70;78.70;;;;;;5053007;28;20033;-81
2021/07/25 00:23:37;;;;;;;4.75;3.35;;;19.70;78.80;;;;;;5052742;28;20103;-81
2021/07/25 00:26:03;;;;;;;5.75;3.85;;;19.70;78.80;;;;;;5052448;28;20111;-81
2021/07/25 00:28:35;;;;;;;4.47;3.22;;;19.60;78.90;;;;;;5055032;28;20036;-82
2021/07/25 00:31:05;;;;;;;4.43;3.15;;;19.70;79.00;;;;;;5056682;28;20024;-81
2021/07/25 00:33:31;;;;;;;4.10;2.90;;;19.60;79.00;;;;;;5038808;28;20029;-81
2021/07/25 00:35:57;;;;;;;4.85;3.50;;;19.60;79.10;;;;;;5056684;28;20384;-81
2021/07/25 00:38:22;;;;;;;4.25;3.28;;;19.60;79.10;;;;;;5056439;28;20382;-80
2021/07/25 00:40:52;;;;;;;5.50;3.72;;;19.60;79.20;;;;;;5056001;28;20092;-81
2021/07/25 00:43:26;;;;;;;4.57;3.28;;;19.60;79.30;;;;;;5056463;28;20095;-81
2021/07/25 00:45:52;;;;;;;6.18;4.18;;;19.60;79.30;;;;;;5056489;28;20025;-80
2021/07/25 00:48:18;;;;;;;4.15;3.25;;;19.50;79.30;;;;;;5056549;28;20025;-81
2021/07/25 00:50:43;;;;;;;5.63;4.55;;;19.50;79.30;;;;;;5056217;28;20040;-81
2021/07/25 00:53:09;;;;;;;5.00;3.65;;;19.50;79.30;;;;;;5056380;28;20025;-81
2021/07/25 00:55:36;;;;;;;5.65;4.05;;;19.50;79.40;;;;;;5055883;28;20025;-81
2021/07/25 00:58:01;;;;;;;5.57;3.92;;;19.50;79.40;;;;;;5056165;28;20489;-81
2021/07/25 01:00:27;;;;;;;6.00;4.75;;;19.50;79.60;;;;;;5056358;28;20025;-81
2021/07/25 01:03:28;;;;;;;5.32;4.07;;;19.40;79.60;;;;;;5056050;28;20478;-81
2021/07/25 01:06:05;;;;;;;4.57;3.45;;;19.40;79.60;;;;;;5056066;28;20355;-81
2021/07/25 01:08:37;;;;;;;5.00;3.17;;;19.40;79.70;;;;;;5037651;28;20031;-81
2021/07/25 01:11:05;;;;;;;5.00;3.58;;;19.40;79.80;;;;;;5056146;28;20066;-81
2021/07/25 01:13:37;;;;;;;5.25;3.67;;;19.40;79.80;;;;;;5056044;28;20020;-81
2021/07/25 01:16:03;;;;;;;5.72;3.72;;;19.40;79.90;;;;;;5055977;28;20020;-81
2021/07/25 01:18:29;;;;;;;4.65;3.38;;;19.30;79.90;;;;;;5037914;28;20049;-81
2021/07/25 01:20:55;;;;;;;3.97;3.10;;;19.40;80.00;;;;;;5055878;28;20032;-81
2021/07/25 01:23:22;;;;;;;4.05;3.50;;;19.30;79.90;;;;;;5055177;28;20499;-81
2021/07/25 01:25:52;;;;;;;4.03;3.03;;;19.30;80.00;;;;;;5055832;28;20048;-82
2021/07/25 01:28:23;;;;;;;4.55;3.17;;;19.30;80.10;;;;;;5055636;28;20404;-82
2021/07/25 01:30:55;;;;;;;4.30;3.38;;;19.30;80.10;;;;;;5055603;28;20031;-82
2021/07/25 01:33:28;;;;;;;4.22;3.10;;;19.30;80.10;;;;;;5055713;28;20021;-82
2021/07/25 01:35:57;;;;;;;5.20;3.85;;;19.30;80.20;;;;;;5055633;28;20025;-81
2021/07/25 01:38:24;;;;;;;5.20;4.03;;;19.30;80.20;;;;;;5055096;28;20017;-81
2021/07/25 01:41:04;;;;;;;5.10;3.83;;;19.30;80.10;;;;;;5054729;28;20024;-82
2021/07/25 01:43:34;;;;;;;5.32;3.55;;;19.30;80.20;;;;;;5055126;28;20040;-82
2021/07/25 01:46:00;;;;;;;3.92;3.17;;;19.30;80.20;;;;;;5055209;28;20017;-81
2021/07/25 01:48:26;;;;;;;4.43;3.28;;;19.30;80.30;;;;;;5037445;28;20405;-81
2021/07/25 01:50:52;;;;;;;4.80;3.22;;;19.30;80.20;;;;;;5055129;28;20040;-81
2021/07/25 01:53:18;;;;;;;4.65;3.42;;;19.30;80.20;;;;;;5054713;28;20466;-81
2021/07/25 01:55:44;;;;;;;5.22;3.42;;;19.30;80.30;;;;;;5055122;28;20065;-81
2021/07/25 01:58:09;;;;;;;5.07;3.40;;;19.30;80.30;;;;;;5055094;28;20025;-81
2021/07/25 02:00:35;;;;;;;4.78;3.47;;;19.30;80.30;;;;;;5054996;28;20486;-81
2021/07/25 02:03:00;;;;;;;5.97;4.18;;;19.20;80.30;;;;;;5054995;28;20485;-81
2021/07/25 02:05:26;;;;;;;5.18;3.78;;;19.20;80.50;;;;;;5055147;28;20025;-81
2021/07/25 02:07:51;;;;;;;6.25;4.68;;;19.20;80.50;;;;;;5054450;28;20485;-81
2021/07/25 02:10:17;;;;;;;5.47;4.18;;;19.20;80.50;;;;;;5037012;28;20382;-81
2021/07/25 02:12:43;;;;;;;3.97;3.05;;;19.20;80.60;;;;;;5054908;28;20028;-81
2021/07/25 02:15:09;;;;;;;4.40;3.30;;;19.20;80.70;;;;;;5054880;28;20027;-81
2021/07/25 02:17:34;;;;;;;4.78;2.95;;;19.20;80.70;;;;;;5054648;28;20100;-81
2021/07/25 02:20:00;;;;;;;6.13;3.75;;;19.10;80.70;;;;;;5054704;28;20100;-80
2021/07/25 02:22:25;;;;;;;4.57;3.45;;;19.10;80.80;;;;;;5054135;28;20029;-81
2021/07/25 02:24:51;;;;;;;3.40;2.30;;;19.10;80.80;;;;;;5054423;28;20040;-81
2021/07/25 02:27:16;;;;;;;3.80;2.80;;;19.10;80.80;;;;;;5054478;28;20017;-81
2021/07/25 02:29:42;;;;;;;4.18;2.92;;;19.10;80.90;;;;;;5054583;28;20032;-81
2021/07/25 02:32:07;;;;;;;4.07;3.35;;;19.00;80.90;;;;;;5054541;28;20024;-81
2021/07/25 02:34:33;;;;;;;5.45;3.67;;;19.00;81.00;;;;;;5054551;28;20470;-81
2021/07/25 02:36:59;;;;;;;4.43;3.22;;;19.00;81.10;;;;;;5054266;28;20029;-81
2021/07/25 02:39:26;;;;;;;4.50;3.33;;;18.90;81.20;;;;;;5036210;28;20025;-81
2021/07/25 02:41:53;;;;;;;5.65;4.30;;;18.90;81.30;;;;;;5054387;28;20359;-82
2021/07/25 02:44:19;;;;;;;6.20;4.68;;;18.90;81.40;;;;;;5054361;28;20037;-81
2021/07/25 02:46:44;;;;;;;6.30;3.78;;;18.90;81.40;;;;;;5054278;28;20021;-81
2021/07/25 02:49:10;;;;;;;5.53;4.13;;;18.80;81.40;;;;;;5054153;28;20025;-81
2021/07/25 02:51:35;;;;;;;6.10;3.47;;;18.90;81.60;;;;;;5053209;28;20064;-81
2021/07/25 02:54:01;;;;;;;5.43;3.60;;;18.80;81.50;;;;;;5053985;28;20056;-81
2021/07/25 02:56:26;;;;;;;5.70;3.83;;;18.80;81.60;;;;;;5054066;28;20021;-81
2021/07/25 02:58:52;;;;;;;4.63;3.30;;;18.80;82.30;;;;;;5053948;28;20033;-81
2021/07/25 03:01:18;;;;;;;4.10;3.10;;;18.80;81.70;;;;;;5035889;28;20025;-81
2021/07/25 03:03:43;;;;;;;4.43;3.22;;;18.80;81.70;;;;;;5053751;28;20082;-81
2021/07/25 03:06:09;;;;;;;3.50;2.58;;;18.80;81.70;;;;;;5053506;28;20029;-81
2021/07/25 03:08:35;;;;;;;3.65;2.85;;;18.80;81.60;;;;;;5053814;28;20473;-80
2021/07/25 03:11:01;;;;;;;4.55;3.22;;;18.80;81.60;;;;;;5053890;28;20017;-81
2021/07/25 03:13:27;;;;;;;4.13;3.30;;;18.80;81.70;;;;;;5053702;28;20086;-81
2021/07/25 03:15:53;;;;;;;5.22;3.08;;;18.80;81.70;;;;;;5053751;28;20041;-82
2021/07/25 03:18:18;;;;;;;3.88;2.88;;;18.80;81.70;;;;;;5053144;28;20458;-82
2021/07/25 03:20:44;;;;;;;4.78;3.22;;;18.80;81.70;;;;;;5053690;28;20104;-82
2021/07/25 03:23:09;;;;;;;3.50;2.70;;;18.80;81.70;;;;;;5053595;28;20079;-82
2021/07/25 03:25:35;;;;;;;2.75;2.33;;;18.80;81.70;;;;;;5053498;28;20025;-82
2021/07/25 03:28:00;;;;;;;4.32;3.05;;;18.70;81.80;;;;;;5053665;28;20032;-82
2021/07/25 03:30:26;;;;;;;3.78;2.90;;;18.70;81.80;;;;;;5053241;28;20112;-82
2021/07/25 03:32:51;;;;;;;3.90;2.80;;;18.70;81.80;;;;;;5053106;28;20036;-81
2021/07/25 03:35:17;;;;;;;4.45;3.33;;;18.70;81.80;;;;;;5053487;28;20029;-82
2021/07/25 03:37:45;;;;;;;3.25;2.75;;;18.70;81.80;;;;;;5053389;28;20389;-82
2021/07/25 03:40:12;;;;;;;4.32;2.83;;;18.70;81.80;;;;;;5053421;28;20470;-82
2021/07/25 03:42:37;;;;;;;4.53;2.92;;;18.70;81.80;;;;;;5053203;28;20037;-81
2021/07/25 03:45:04;;;;;;;4.30;3.00;;;18.70;81.90;;;;;;5053419;28;20078;-82
2021/07/25 03:47:30;;;;;;;5.20;3.58;;;18.70;82.00;;;;;;5052916;28;20017;-82
2021/07/25 03:49:55;;;;;;;4.03;2.70;;;18.60;82.10;;;;;;5053308;28;20469;-82
2021/07/25 03:52:22;;;;;;;4.28;2.60;;;18.60;82.10;;;;;;5053167;28;20055;-82
2021/07/25 03:54:47;;;;;;;3.30;2.55;;;18.60;82.10;;;;;;5053137;28;20068;-81
2021/07/25 03:57:13;;;;;;;3.63;2.85;;;18.60;82.10;;;;;;5053084;28;20485;-81
2021/07/25 03:59:39;;;;;;;5.82;3.22;;;18.60;82.10;;;;;;5053132;28;20462;-81
2021/07/25 04:02:05;;;;;;;5.25;3.22;;;18.60;82.10;;;;;;5052838;28;20094;-81
2021/07/25 04:04:31;;;;;;;3.38;2.75;;;18.60;82.10;;;;;;5057039;28;20458;-82
2021/07/25 04:06:56;;;;;;;4.28;2.72;;;18.60;82.10;;;;;;5057161;28;20025;-82
2021/07/25 04:09:22;;;;;;;3.97;2.70;;;18.60;82.10;;;;;;5057179;28;20082;-81
2021/07/25 04:11:55;;;;;;;4.97;3.28;;;18.60;82.10;;;;;;5057035;28;20075;-81
2021/07/25 04:14:21;;;;;;;2.83;2.30;;;18.60;82.10;;;;;;5057138;28;20108;-81
2021/07/25 04:16:48;;;;;;;3.05;2.47;;;18.60;82.10;;;;;;5056569;28;20048;-81
2021/07/25 04:19:13;;;;;;;3.67;2.45;;;18.60;82.20;;;;;;5039140;28;20067;-81
2021/07/25 04:21:39;;;;;;;3.10;2.20;;;18.60;82.20;;;;;;5038916;28;20021;-81
2021/07/25 04:24:05;;;;;;;2.60;2.15;;;18.60;82.20;;;;;;5038993;28;20444;-81
2021/07/25 04:26:30;;;;;;;3.08;2.30;;;18.60;82.20;;;;;;5056969;28;20021;-81
2021/07/25 04:28:56;;;;;;;3.30;2.50;;;18.60;82.20;;;;;;5056936;28;20033;-81
2021/07/25 04:31:22;;;;;;;3.17;2.42;;;18.50;82.10;;;;;;5056447;28;20017;-80
2021/07/25 04:33:52;;;;;;;3.38;2.45;;;18.60;82.30;;;;;;5056516;28;20508;-81
2021/07/25 04:36:24;;;;;;;3.00;2.40;;;18.50;82.20;;;;;;5057064;28;20017;-81
2021/07/25 04:38:50;;;;;;;2.72;2.15;;;18.60;82.20;;;;;;5056763;28;20028;-81
2021/07/25 04:41:21;;;;;;;4.13;2.90;;;18.60;82.20;;;;;;5056687;28;20031;-82
2021/07/25 04:43:47;;;;;;;3.33;2.22;;;18.60;82.20;;;;;;5056483;28;20421;-81
2021/07/25 04:46:45;;;;;;;4.47;2.97;;;18.60;82.10;;;;;;5056081;28;20021;-81
2021/07/25 04:49:13;;;;;;;3.72;2.70;;;18.70;81.90;;;;;;5041066;28;20025;-81
2021/07/25 04:51:40;;;;;;;2.80;2.10;;;18.70;81.90;;;;;;5056243;28;20049;-81
2021/07/25 04:54:14;;;;;;;3.50;2.80;;;18.80;81.80;;;;;;5056216;28;20138;-82
2021/07/25 04:57:00;;;;;;;3.67;2.83;;;18.80;81.70;;;;;;5056200;28;20388;-81
2021/07/25 04:59:25;;;;;;;3.17;2.38;;;18.90;81.70;;;;;;5056445;28;20059;-82
2021/07/25 05:01:53;;;;;;;3.13;2.13;;;18.90;81.60;;;;;;5055740;28;20029;-81
2021/07/25 05:04:21;;;;;;;2.95;2.25;;;19.00;81.60;;;;;;5056192;28;20385;-82
2021/07/25 05:06:47;;;;;;;3.33;2.55;;;19.10;81.60;;;;;;5056006;28;20021;-82
2021/07/25 05:09:12;;;;;;;3.15;2.10;;;19.10;81.60;;;;;;5056216;28;20028;-82
2021/07/25 05:11:54;;;;;;;3.80;3.03;;;19.10;81.60;;;;;;5038106;28;20503;-82
2021/07/25 05:14:35;;;;;;;2.55;2.22;;;19.20;81.60;;;;;;5055645;28;20021;-82
2021/07/25 05:17:07;;;;;;;3.25;2.22;;;19.20;81.70;;;;;;5056049;28;20363;-82
2021/07/25 05:19:55;;;;;;;3.45;2.33;;;19.10;81.80;;;;;;5055989;28;20203;-82
2021/07/25 05:22:42;;;;;;;2.38;1.88;;;19.10;81.70;;;;;;5055816;28;20017;-82
2021/07/25 05:25:08;;;;;;;3.47;2.33;;;19.10;81.80;;;;;;5055820;28;20546;-82
2021/07/25 05:27:41;;;;;;;3.92;2.60;;;19.00;81.80;;;;;;5038122;28;20362;-82
2021/07/25 05:30:09;;;;;;;3.17;2.38;;;19.10;81.90;;;;;;5055372;28;20047;-82
2021/07/25 05:32:34;;;;;;;3.28;2.13;;;19.00;81.80;;;;;;5055678;28;20020;-82
2021/07/25 05:35:00;;;;;;;2.30;1.70;;;19.00;81.80;;;;;;5055844;28;20021;-82
2021/07/25 05:37:25;;;;;;;2.92;2.03;;;19.00;81.80;;;;;;5055645;28;20029;-82
2021/07/25 05:39:51;;;;;;;2.33;1.98;;;19.00;81.80;;;;;;5055463;28;20096;-82
2021/07/25 05:42:16;;;;;;;1.83;1.67;;;19.00;81.80;;;;;;5055647;28;20025;-82
2021/07/25 05:44:42;;;;;;;2.00;1.80;;;19.10;81.80;;;;;;5054943;28;20103;-82
2021/07/25 05:47:07;;;;;;;1.95;1.63;;;19.20;81.80;;;;;;5055337;28;20060;-82
2021/07/25 05:49:33;;;;;;;2.53;1.83;;;19.20;81.70;;;;;;5055313;28;20492;-82
2021/07/25 05:51:58;;;;;;;3.40;2.05;;;19.30;81.60;;;;;;5055059;28;20039;-82
2021/07/25 05:54:24;;;;;;;1.48;1.33;;;19.40;81.40;;;;;;5055269;28;20041;-82
2021/07/25 05:56:49;;;;;;;1.92;1.60;;;19.50;81.30;;;;;;5055207;28;20036;-82
2021/07/25 05:59:15;;;;;;;2.08;1.70;;;19.60;81.10;;;;;;5054598;28;20111;-81
2021/07/25 06:01:40;;;;;;;1.83;1.60;;;19.80;81.00;;;;;;5037166;28;20029;-81
2021/07/25 06:04:06;;;;;;;2.40;1.63;;;19.90;80.90;;;;;;5055117;28;20029;-82
2021/07/25 06:06:33;;;;;;;2.25;1.98;;;20.00;80.60;;;;;;5055183;28;20025;-82
2021/07/25 06:08:58;;;;;;;3.20;2.17;;;20.10;80.50;;;;;;5054941;28;20033;-82
2021/07/25 06:11:24;;;;;;;2.30;2.10;;;20.20;80.40;;;;;;5054909;28;20051;-82
2021/07/25 06:13:50;;;;;;;1.75;1.63;;;20.30;80.40;;;;;;5054349;28;20474;-82
2021/07/25 06:16:16;;;;;;;2.08;1.63;;;20.30;80.30;;;;;;5037029;28;20079;-81
2021/07/25 06:18:45;;;;;;;1.90;1.60;;;20.40;80.30;;;;;;5054997;28;20425;-81
2021/07/25 06:21:11;;;;;;;;;;;20.40;80.20;;;;;;5055107;28;20021;-81
2021/07/25 06:23:37;;;;;;;1.85;1.67;;;20.40;80.10;;;;;;5054760;28;20047;-82
2021/07/25 06:26:02;;;;;;;1.35;1.15;;;20.50;80.20;;;;;;5054051;28;20021;-81
2021/07/25 06:28:28;;;;;;;1.98;1.48;;;20.50;80.30;;;;;;5054073;28;20029;-81
2021/07/25 06:30:53;;;;;;;1.60;1.15;;;20.50;80.20;;;;;;5054819;28;20024;-82
2021/07/25 06:33:19;;;;;;;1.40;1.30;;;20.50;80.30;;;;;;5054494;28;20049;-82
2021/07/25 06:35:45;;;;;;;1.83;1.45;;;20.50;80.20;;;;;;5054478;28;20021;-82
2021/07/25 06:38:13;;;;;;;2.17;1.98;;;20.60;80.30;;;;;;5054438;28;20374;-82
2021/07/25 06:40:42;;;;;;;2.13;1.52;;;20.50;80.30;;;;;;5036585;28;20027;-82
2021/07/25 06:43:08;;;;;;;2.42;1.80;;;20.50;80.50;;;;;;5053844;28;20052;-82
2021/07/25 06:45:34;;;;;;;2.15;1.65;;;20.40;80.70;;;;;;5054282;28;20458;-82
2021/07/25 06:48:00;;;;;;;2.05;1.80;;;20.30;80.70;;;;;;5054360;28;20028;-82
2021/07/25 06:50:28;;;;;;;2.15;1.70;;;20.20;80.80;;;;;;5054223;28;20029;-81
2021/07/25 06:52:54;;;;;;;1.95;1.45;;;20.20;80.90;;;;;;5054389;28;20033;-82
2021/07/25 06:55:30;;;;;;;1.23;1.05;;;20.20;80.90;;;;;;5054276;28;20029;-82
2021/07/25 06:57:56;;;;;;;3.08;1.77;;;20.20;81.50;;;;;;5053902;28;20458;-82
2021/07/25 07:00:22;;;;;;;2.38;1.50;;;20.20;80.90;;;;;;5054006;28;20017;-82
2021/07/25 07:02:51;;;;;;;1.98;1.40;;;20.20;80.90;;;;;;5053930;28;20087;-82
2021/07/25 07:05:25;;;;;;;2.65;1.65;;;20.20;80.90;;;;;;5035947;28;20051;-84
2021/07/25 07:07:52;;;;;;;1.30;1.05;;;20.20;80.80;;;;;;5054095;28;20072;-83
2021/07/25 07:10:21;;;;;;;1.42;1.20;;;20.30;80.80;;;;;;5053885;28;20104;-83
2021/07/25 07:12:48;;;;;;;1.50;1.20;;;20.30;80.70;;;;;;5054045;28;20027;-83
2021/07/25 07:15:15;;;;;;;1.20;1.10;;;20.40;80.80;;;;;;5053887;28;20263;-83
2021/07/25 07:17:41;;;;;;;1.33;1.17;;;20.40;80.60;;;;;;5053705;28;20032;-83
2021/07/25 07:20:09;;;;;;;0.93;0.93;;;20.50;81.30;;;;;;5053923;28;20071;-82
2021/07/25 07:22:35;;;;;;;1.45;1.20;;;20.50;80.60;;;;;;5053832;28;20049;-82
2021/07/25 07:25:02;;;;;;;1.10;1.00;;;20.60;80.50;;;;;;5053186;28;20036;-82
2021/07/25 07:27:28;;;;;;;1.38;0.85;;;20.60;80.40;;;;;;5035827;28;20021;-83
2021/07/25 07:29:54;;;;;;;1.10;1.00;;;20.70;80.40;;;;;;5035813;28;20120;-82
2021/07/25 07:32:20;;;;;;;1.20;1.10;;;20.70;80.30;;;;;;5053452;28;20082;-82
2021/07/25 07:34:46;;;;;;;1.05;0.90;;;20.80;80.40;;;;;;5053671;28;20077;-83
2021/07/25 07:37:11;;;;;;;1.05;0.95;;;20.80;80.20;;;;;;5052602;28;20028;-83
2021/07/25 07:39:41;;;;;;;1.23;1.08;;;20.90;80.20;;;;;;5053135;28;20025;-83
2021/07/25 07:42:08;;;;;;;1.30;1.02;;;21.00;80.20;;;;;;5053546;28;20488;-83
2021/07/25 07:44:33;;;;;;;2.00;1.05;;;21.00;80.10;;;;;;5053303;28;20029;-83
2021/07/25 07:46:59;;;;;;;2.22;1.10;;;21.10;80.20;;;;;;5053657;28;20025;-83
2021/07/25 07:49:25;;;;;;;0.90;0.90;;;21.10;80.10;;;;;;5053481;28;20025;-83
2021/07/25 07:51:50;;;;;;;1.08;0.98;;;21.20;80.00;;;;;;5053261;28;20540;-83
2021/07/25 07:54:16;;;;;;;1.23;1.13;;;21.20;79.90;;;;;;5052886;28;20029;-83
2021/07/25 07:56:41;;;;;;;1.33;1.10;;;21.30;79.90;;;;;;5053375;28;20029;-83
2021/07/25 07:59:07;;;;;;;1.55;0.90;;;21.40;79.90;;;;;;5053342;28;20032;-84
2021/07/25 08:01:33;;;;;;;1.45;1.10;;;21.40;79.80;;;;;;5053272;28;20032;-83
2021/07/25 08:03:58;;;;;;;1.08;0.98;;;21.50;79.80;;;;;;5053242;28;20029;-83
2021/07/25 08:06:24;;;;;;;1.15;0.98;;;21.50;79.70;;;;;;5053212;28;20029;-83
2021/07/25 08:08:49;;;;;;;1.00;0.93;;;21.60;79.70;;;;;;5052737;28;20133;-82
2021/07/25 08:11:15;;;;;;;1.13;1.00;;;21.60;79.60;;;;;;5053194;28;20021;-83
2021/07/25 08:13:43;;;;;;;1.00;0.98;;;21.70;79.60;;;;;;5053150;28;20491;-83
2021/07/25 08:16:09;;;;;;;1.25;1.02;;;21.70;79.50;;;;;;5053501;28;20017;-83
2021/07/25 08:18:34;;;;;;;1.05;0.95;;;21.80;79.40;;;;;;5053115;28;20112;-83
2021/07/25 08:21:00;;;;;;;0.90;0.90;;;21.90;79.40;;;;;;5053190;28;20581;-83
2021/07/25 08:23:26;;;;;;;1.25;0.85;;;21.90;79.20;;;;;;5052556;28;20033;-83
2021/07/25 08:25:51;;;;;;;1.10;1.00;;;22.00;79.10;;;;;;5053200;28;20033;-83
2021/07/25 08:28:17;;;;;;;1.92;1.60;;;22.00;79.10;;;;;;5053227;28;20118;-83
2021/07/25 08:30:42;;;;;;;1.38;1.23;;;22.00;79.10;;;;;;5053086;28;20462;-83
2021/07/25 08:33:09;;;;;;;0.75;0.70;;;22.10;79.10;;;;;;5053112;28;20029;-83
2021/07/25 08:35:34;;;;;;;1.77;0.77;;;22.20;79.00;;;;;;5053057;28;20529;-83
2021/07/25 08:38:00;;;;;;;1.20;1.00;;;22.30;78.90;;;;;;5052801;28;20104;-83
2021/07/25 08:40:25;;;;;;;1.65;1.00;;;22.40;78.80;;;;;;5052910;28;20021;-83
2021/07/25 08:43:04;;;;;;;0.93;0.90;;;22.50;78.70;;;;;;5052748;28;20028;-83
2021/07/25 08:45:30;;;;;;;0.80;0.80;;;22.50;78.60;;;;;;5053014;28;20104;-83
2021/07/25 08:48:03;;;;;;;1.00;0.90;;;22.60;78.70;;;;;;5053130;28;20488;-83
2021/07/25 08:50:30;;;;;;;1.52;1.13;;;22.70;78.60;;;;;;5056386;28;20465;-82
2021/07/25 08:52:56;;;;;;;2.25;0.95;;;22.90;78.40;;;;;;5056273;28;20029;-83
2021/07/25 08:55:22;;;;;;;0.60;0.60;;;23.10;78.00;;;;;;5056743;28;20021;-84
2021/07/25 08:57:50;;;;;;;1.02;1.00;;;23.30;77.70;;;;;;5056651;28;20057;-84
2021/07/25 09:00:20;;;;;;;1.23;1.13;;;23.50;77.40;;;;;;5056483;28;20056;-84
2021/07/25 09:02:45;;;;;;;;;;;23.70;77.20;;;;;;5039005;28;20478;-83
2021/07/25 09:05:11;;;;;;;1.27;1.17;;;23.60;77.30;;;;;;5056542;28;19915;-83
2021/07/25 09:07:42;;;;;;;3.05;1.25;;;23.60;77.40;;;;;;5056234;28;20474;-83
2021/07/25 09:10:11;;;;;;;1.60;1.30;;;23.60;77.40;;;;;;5056391;28;20025;-83
2021/07/25 09:12:37;;;;;;;1.42;1.33;;;23.50;77.60;;;;;;5056295;28;20108;-83
2021/07/25 09:15:29;;;;;;;2.10;1.60;;;23.40;77.80;;;;;;5056494;28;20473;-82
2021/07/25 09:17:59;;;;;;;1.77;1.63;;;23.30;77.80;;;;;;5045762;28;20037;-83
2021/07/25 09:20:30;;;;;;;1.63;1.30;;;23.30;77.90;;;;;;5056151;28;20065;-83
2021/07/25 09:23:21;;;;;;;1.08;1.08;;;23.30;77.80;;;;;;5055780;28;20021;-83
2021/07/25 09:25:55;;;;;;;1.30;1.20;;;23.40;77.80;;;;;;5052389;28;20040;-83
2021/07/25 09:28:38;;;;;;;1.48;1.10;;;23.50;77.80;;;;;;5056117;28;20025;-83
2021/07/25 09:31:15;;;;;;;1.42;1.10;;;23.50;77.70;;;;;;5056017;28;20482;-83
2021/07/25 09:33:46;;;;;;;1.25;1.20;;;23.60;77.60;;;;;;5056265;28;20568;-84
2021/07/25 09:36:18;;;;;;;1.50;1.40;;;23.70;77.50;;;;;;5055588;28;20104;-84
2021/07/25 09:38:46;;;;;;;1.30;1.20;;;23.70;77.50;;;;;;5038248;28;20027;-83
2021/07/25 09:41:20;;;;;;;0.93;0.80;;;23.80;77.30;;;;;;5038246;28;20020;-83
2021/07/25 09:43:57;;;;;;;0.80;0.80;;;23.90;77.20;;;;;;5055863;28;20486;-84
2021/07/25 09:46:23;;;;;;;1.10;1.00;;;24.00;77.20;;;;;;5055926;28;20075;-84
2021/07/25 09:48:55;;;;;;;1.10;0.95;;;24.10;77.10;;;;;;5055792;28;20053;-84
2021/07/25 09:51:23;;;;;;;1.25;1.15;;;24.20;77.00;;;;;;5037443;28;20041;-84
2021/07/25 09:53:53;;;;;;;1.10;1.05;;;24.20;76.90;;;;;;5055828;28;20033;-84
2021/07/25 09:56:26;;;;;;;2.00;1.30;;;24.30;76.80;;;;;;5055562;28;20070;-84
2021/07/25 09:58:54;;;;;;;1.17;1.08;;;24.40;76.70;;;;;;5055555;28;20032;-84
2021/07/25 10:01:39;;;;;;;0.95;0.95;;;24.50;76.50;;;;;;5054762;28;20020;-85
2021/07/25 10:04:11;;;;;;;1.35;1.00;;;24.60;76.30;;;;;;5055518;28;20044;-84
2021/07/25 10:06:40;;;;;;;0.82;0.82;;;24.70;76.40;;;;;;5054986;28;20025;-84
2021/07/25 10:09:14;;;;;;;1.50;1.40;;;24.80;76.10;;;;;;5055288;28;20100;-84
2021/07/25 10:11:52;;;;;;;1.00;0.85;;;24.80;76.10;;;;;;5055283;28;20052;-84
2021/07/25 10:14:20;;;;;;;0.98;0.98;;;24.80;76.20;;;;;;5055641;28;20069;-84
2021/07/25 10:16:51;;;;;;;0.90;0.80;;;24.70;76.20;;;;;;5055336;28;20032;-85
2021/07/25 10:19:24;;;;;;;1.30;1.20;;;24.60;76.20;;;;;;5054886;28;20078;-84
2021/07/25 10:21:51;;;;;;;1.35;1.08;;;24.60;76.30;;;;;;5037505;28;20478;-84
2021/07/25 10:24:20;;;;;;;1.83;0.88;;;24.60;76.30;;;;;;5055120;28;20145;-84
2021/07/25 10:26:45;;;;;;;0.77;0.77;;;24.60;76.10;;;;;;5055088;28;20017;-84
2021/07/25 10:29:11;;;;;;;1.17;1.05;;;24.80;75.80;;;;;;5054920;28;20036;-84
2021/07/25 10:31:38;;;;;;;1.10;1.00;;;25.00;75.60;;;;;;5055022;28;20096;-85
2021/07/25 10:34:04;;;;;;;1.27;1.15;;;25.10;75.20;;;;;;5036768;28;20543;-85
2021/07/25 10:36:32;;;;;;;1.45;1.35;;;25.20;75.20;;;;;;5054893;28;20029;-84
2021/07/25 10:38:58;;;;;;;1.38;1.08;;;25.40;75.20;;;;;;5037065;28;20052;-84
2021/07/25 10:41:26;;;;;;;1.45;1.10;;;25.60;74.80;;;;;;5036926;28;20028;-84
2021/07/25 10:43:52;;;;;;;0.90;0.90;;;25.80;74.50;;;;;;5036979;28;20036;-85
2021/07/25 10:46:23;;;;;;;1.60;1.35;;;26.10;74.20;;;;;;5054896;28;20029;-84
2021/07/25 10:49:04;;;;;;;1.23;1.13;;;26.30;74.00;;;;;;5054319;28;20029;-85
2021/07/25 10:51:34;;;;;;;1.33;1.23;;;26.40;73.80;;;;;;5054440;28;20048;-84
2021/07/25 10:54:24;;;;;;;2.05;1.60;;;26.30;74.00;;;;;;5054735;28;20028;-85
2021/07/25 10:57:17;;;;;;;1.35;1.25;;;26.10;74.30;;;;;;5054541;28;20477;-85
2021/07/25 10:59:55;;;;;;;1.02;0.90;;;25.90;74.70;;;;;;5051788;28;20041;-84
2021/07/25 11:02:26;;;;;;;1.15;1.00;;;25.70;74.80;;;;;;5054045;28;20410;-83
2021/07/25 11:04:55;;;;;;;2.20;1.33;;;25.60;74.90;;;;;;5054338;28;20029;-85
2021/07/25 11:07:23;;;;;;;1.33;1.23;;;25.80;74.80;;;;;;5054360;28;20031;-84
2021/07/25 11:09:55;;;;;;;1.40;1.30;;;26.00;74.40;;;;;;5054459;28;20298;-85
2021/07/25 11:12:20;;;;;;;1.15;1.02;;;26.10;73.90;;;;;;5054075;28;20021;-85
2021/07/25 11:14:55;;;;;;;1.40;1.30;;;26.10;73.90;;;;;;5054458;28;20074;-85
2021/07/25 11:17:46;;;;;;;0.75;0.75;;;26.00;74.10;;;;;;5053495;28;20021;-84
2021/07/25 11:20:34;;;;;;;1.20;1.10;;;25.90;74.40;;;;;;5054043;28;20031;-84
2021/07/25 11:23:01;;;;;;;1.65;1.13;;;25.80;74.40;;;;;;5053971;28;20592;-84
2021/07/25 11:25:37;;;;;;;1.02;1.02;;;25.80;74.40;;;;;;5053944;28;20108;-84
2021/07/25 11:28:04;;;;;;;1.33;1.23;;;25.90;74.40;;;;;;5053955;28;20083;-84
2021/07/25 11:30:48;;;;;;;1.00;0.93;;;26.20;74.10;;;;;;5053599;28;20052;-84
2021/07/25 11:33:44;;;;;;;1.33;1.02;;;26.60;73.40;;;;;;5053261;28;20021;-85
2021/07/25 11:36:12;;;;;;;1.00;0.90;;;27.00;72.60;;;;;;5053622;28;20035;-84
2021/07/25 11:38:39;;;;;;;0.82;0.80;;;27.70;72.10;;;;;;5053356;28;20060;-84
2021/07/25 11:41:06;;;;;;;0.80;0.70;;;28.60;70.70;;;;;;5053431;28;20483;-84
2021/07/25 11:43:55;;;;;;;1.10;1.00;;;29.60;69.50;;;;;;5035613;28;20033;-84
2021/07/25 11:46:24;;;;;;;;;;;30.50;68.20;;;;;;5053376;28;20100;-84
2021/07/25 11:49:10;;;;;;;1.15;0.88;;;31.00;67.80;;;;;;5053229;28;19951;-83
2021/07/25 11:51:39;;;;;;;1.20;1.10;;;31.40;67.20;;;;;;5053136;28;20095;-82
2021/07/25 11:54:05;;;;;;;0.70;0.70;;;31.40;66.80;;;;;;5053311;28;20112;-83
2021/07/25 11:56:31;;;;;;;0.70;0.70;;;31.00;67.40;;;;;;5053197;28;20044;-83
2021/07/25 11:59:02;;;;;;;0.80;0.80;;;30.60;68.30;;;;;;5053289;28;20025;-84
2021/07/25 12:01:28;;;;;;;1.25;1.00;;;30.30;68.40;;;;;;5052719;28;20029;-83
2021/07/25 12:03:53;;;;;;;1.58;1.48;;;29.60;69.30;;;;;;5052973;28;20508;-82
2021/07/25 12:06:19;;;;;;;0.80;0.80;;;29.30;70.30;;;;;;5052939;28;20017;-82
2021/07/25 12:09:09;;;;;;;0.90;0.90;;;29.70;70.30;;;;;;5053044;28;20428;-82
2021/07/25 12:11:37;;;;;;;1.10;0.85;;;30.50;69.10;;;;;;5053021;28;20151;-84
2021/07/25 12:14:03;;;;;;;1.02;1.00;;;31.00;67.80;;;;;;5053106;28;20017;-82
2021/07/25 12:16:48;;;;;;;1.23;1.13;;;31.30;67.30;;;;;;5052297;28;20052;-82
2021/07/25 12:19:15;;;;;;;1.15;1.00;;;31.30;67.20;;;;;;5052874;28;20037;-82
2021/07/25 12:21:41;;;;;;;1.25;1.15;;;31.40;67.00;;;;;;5052862;28;20029;-82
2021/07/25 12:24:31;;;;;;;0.85;0.85;;;30.90;67.40;;;;;;5054557;28;20542;-82
2021/07/25 12:26:58;;;;;;;0.93;0.88;;;30.00;68.60;;;;;;5038790;28;20144;-82
2021/07/25 12:29:45;;;;;;;0.70;0.70;;;29.30;69.80;;;;;;5056464;28;20028;-82
2021/07/25 12:32:29;;;;;;;0.75;0.70;;;28.70;70.60;;;;;;5039254;28;20074;-82
2021/07/25 12:35:13;;;;;;;1.00;0.90;;;28.10;71.10;;;;;;5056744;28;20059;-82
2021/07/25 12:37:48;;;;;;;0.75;0.75;;;27.70;71.50;;;;;;5056712;28;20031;-82
2021/07/25 12:40:24;;;;;;;0.90;0.90;;;27.30;71.80;;;;;;5038687;28;20025;-82
2021/07/25 12:42:57;;;;;;;1.05;0.85;;;27.10;72.10;;;;;;5056477;28;20028;-82
2021/07/25 12:45:31;;;;;;;0.90;0.90;;;27.30;71.70;;;;;;5038284;28;20060;-82
2021/07/25 12:48:17;;;;;;;1.13;1.02;;;27.30;71.20;;;;;;5056583;28;20196;-81
2021/07/25 12:51:17;;;;;;;0.90;0.80;;;27.30;71.20;;;;;;5056187;28;20132;-81
2021/07/25 12:53:44;;;;;;;0.63;0.63;;;28.00;70.40;;;;;;5056342;28;20025;-82
2021/07/25 12:56:18;;;;;;;0.88;0.65;;;28.30;69.40;;;;;;5038293;28;20100;-82
2021/07/25 12:58:46;;;;;;;1.15;0.80;;;28.30;69.30;;;;;;5055771;28;20381;-82